sensor_id;sensor_type;location;lat;lon;timestamp;temperature;humidity
60868;DHT22;46702;48.370;10.794;2023-08-12T00:00:08;18.10;99.90
60868;DHT22;46702;48.370;10.794;2023-08-12T00:02:42;18.10;99.90
60868;DHT22;46702;48.370;10.794;2023-08-12T00:05:08;17.80;99.90
60868;DHT22;46702;48.370;10.794;2023-08-12T00:07:36;17.80;99.90
60868;DHT22;46702;48.370;10.794;2023-08-12T00:10:02;17.80;99.90
60868;DHT22;46702;48.370;10.794;2023-08-12T00:12:31;17.90;99.90
60868;DHT22;46702;48.370;10.794;2023-08-12T00:14:56;17.90;99.90
60868;DHT22;46702;48.370;10.794;2023-08-12T00:17:22;17.90;99.90
60868;DHT22;46702;48.370;10.794;2023-08-12T00:19:48;17.80;99.90
60868;DHT22;46702;48.370;10.794;2023-08-12T00:22:13;17.70;99.90
60868;DHT22;46702;48.370;10.794;2023-08-12T00:24:39;17.80;99.90
60868;DHT22;46702;48.370;10.794;2023-08-12T00:27:06;17.80;99.90
60868;DHT22;46702;48.370;10.794;2023-08-12T00:29:32;17.70;99.90
60868;DHT22;46702;48.370;10.794;2023-08-12T00:31:58;17.60;99.90
60868;DHT22;46702;48.370;10.794;2023-08-12T00:34:24;17.50;99.90
60868;DHT22;46702;48.370;10.794;2023-08-12T00:36:49;17.40;99.90
60868;DHT22;46702;48.370;10.794;2023-08-12T00:39:15;17.40;99.90
60868;DHT22;46702;48.370;10.794;2023-08-12T00:41:40;17.40;99.90
60868;DHT22;46702;48.370;10.794;2023-08-12T00:44:06;17.50;99.90
60868;DHT22;46702;48.370;10.794;2023-08-12T00:46:33;17.40;99.90
60868;DHT22;46702;48.370;10.794;2023-08-12T00:48:59;17.40;99.90
60868;DHT22;46702;48.370;10.794;2023-08-12T00:51:25;17.30;99.90
60868;DHT22;46702;48.370;10.794;2023-08-12T00:53:51;17.30;99.90
60868;DHT22;46702;48.370;10.794;2023-08-12T00:56:17;17.20;99.90
60868;DHT22;46702;48.370;10.794;2023-08-12T00:58:43;17.20;99.90
60868;DHT22;46702;48.370;10.794;2023-08-12T01:01:10;17.30;99.90
60868;DHT22;46702;48.370;10.794;2023-08-12T01:03:37;17.30;99.90
60868;DHT22;46702;48.370;10.794;2023-08-12T01:06:03;17.10;99.90
60868;DHT22;46702;48.370;10.794;2023-08-12T01:08:30;17.00;99.90
60868;DHT22;46702;48.370;10.794;2023-08-12T01:11:03;16.80;99.90
60868;DHT22;46702;48.370;10.794;2023-08-12T01:13:49;16.70;99.90
60868;DHT22;46702;48.370;10.794;2023-08-12T01:16:17;16.60;99.90
60868;DHT22;46702;48.370;10.794;2023-08-12T01:18:44;16.60;99.90
60868;DHT22;46702;48.370;10.794;2023-08-12T01:21:14;16.70;99.90
60868;DHT22;46702;48.370;10.794;2023-08-12T01:23:41;16.70;99.90
60868;DHT22;46702;48.370;10.794;2023-08-12T01:26:06;16.80;99.90
60868;DHT22;46702;48.370;10.794;2023-08-12T01:28:32;16.70;99.90
60868;DHT22;46702;48.370;10.794;2023-08-12T01:31:08;16.50;99.90
60868;DHT22;46702;48.370;10.794;2023-08-12T01:33:46;16.50;99.90
60868;DHT22;46702;48.370;10.794;2023-08-12T01:36:17;16.50;99.90
60868;DHT22;46702;48.370;10.794;2023-08-12T01:38:43;16.40;99.90
60868;DHT22;46702;48.370;10.794;2023-08-12T01:41:10;16.40;99.90
60868;DHT22;46702;48.370;10.794;2023-08-12T01:43:38;16.40;99.90
60868;DHT22;46702;48.370;10.794;2023-08-12T01:46:03;16.50;99.90
60868;DHT22;46702;48.370;10.794;2023-08-12T01:48:29;16.50;99.90
60868;DHT22;46702;48.370;10.794;2023-08-12T01:50:55;16.50;99.90
60868;DHT22;46702;48.370;10.794;2023-08-12T01:53:20;16.50;99.90
60868;DHT22;46702;48.370;10.794;2023-08-12T01:55:46;16.50;99.90
60868;DHT22;46702;48.370;10.794;2023-08-12T01:58:12;16.50;99.90
60868;DHT22;46702;48.370;10.794;2023-08-12T02:00:37;16.40;99.90
60868;DHT22;46702;48.370;10.794;2023-08-12T02:03:03;16.30;99.90
60868;DHT22;46702;48.370;10.794;2023-08-12T02:05:29;16.20;99.90
60868;DHT22;46702;48.370;10.794;2023-08-12T02:07:55;16.10;99.90
60868;DHT22;46702;48.370;10.794;2023-08-12T02:10:20;16.20;99.90
60868;DHT22;46702;48.370;10.794;2023-08-12T02:12:46;16.10;99.90
60868;DHT22;46702;48.370;10.794;2023-08-12T02:15:12;15.80;99.90
60868;DHT22;46702;48.370;10.794;2023-08-12T02:17:37;15.70;99.90
60868;DHT22;46702;48.370;10.794;2023-08-12T02:20:03;15.60;99.90
60868;DHT22;46702;48.370;10.794;2023-08-12T02:22:29;15.60;99.90
60868;DHT22;46702;48.370;10.794;2023-08-12T02:24:55;15.70;99.90
60868;DHT22;46702;48.370;10.794;2023-08-12T02:27:21;15.60;99.90
60868;DHT22;46702;48.370;10.794;2023-08-12T02:29:46;15.70;99.90
60868;DHT22;46702;48.370;10.794;2023-08-12T02:32:12;15.80;99.90
60868;DHT22;46702;48.370;10.794;2023-08-12T02:34:38;15.80;99.90
60868;DHT22;46702;48.370;10.794;2023-08-12T02:37:03;15.90;99.90
60868;DHT22;46702;48.370;10.794;2023-08-12T02:39:29;15.90;99.90
60868;DHT22;46702;48.370;10.794;2023-08-12T02:41:54;15.90;99.90
60868;DHT22;46702;48.370;10.794;2023-08-12T02:44:20;15.80;99.90
60868;DHT22;46702;48.370;10.794;2023-08-12T02:46:46;15.80;99.90
60868;DHT22;46702;48.370;10.794;2023-08-12T02:49:11;15.80;99.90
60868;DHT22;46702;48.370;10.794;2023-08-12T02:51:37;15.80;99.90
60868;DHT22;46702;48.370;10.794;2023-08-12T02:54:02;15.90;99.90
60868;DHT22;46702;48.370;10.794;2023-08-12T02:56:28;15.90;99.90
60868;DHT22;46702;48.370;10.794;2023-08-12T02:58:53;15.90;99.90
60868;DHT22;46702;48.370;10.794;2023-08-12T03:01:20;15.90;99.90
60868;DHT22;46702;48.370;10.794;2023-08-12T03:03:46;15.80;99.90
60868;DHT22;46702;48.370;10.794;2023-08-12T03:06:12;15.80;99.90
60868;DHT22;46702;48.370;10.794;2023-08-12T03:08:37;15.80;99.90
60868;DHT22;46702;48.370;10.794;2023-08-12T03:11:03;15.80;99.90
60868;DHT22;46702;48.370;10.794;2023-08-12T03:13:29;15.80;99.90
60868;DHT22;46702;48.370;10.794;2023-08-12T03:15:55;15.70;99.90
60868;DHT22;46702;48.370;10.794;2023-08-12T03:18:21;15.70;99.90
60868;DHT22;46702;48.370;10.794;2023-08-12T03:20:47;15.70;99.90
60868;DHT22;46702;48.370;10.794;2023-08-12T03:23:13;15.80;99.90
60868;DHT22;46702;48.370;10.794;2023-08-12T03:25:38;15.70;99.90
60868;DHT22;46702;48.370;10.794;2023-08-12T03:28:04;15.70;99.90
60868;DHT22;46702;48.370;10.794;2023-08-12T03:30:30;15.50;99.90
60868;DHT22;46702;48.370;10.794;2023-08-12T03:32:55;15.50;99.90
60868;DHT22;46702;48.370;10.794;2023-08-12T03:35:21;15.10;99.90
60868;DHT22;46702;48.370;10.794;2023-08-12T03:37:47;14.90;99.90
60868;DHT22;46702;48.370;10.794;2023-08-12T03:40:12;15.00;99.90
60868;DHT22;46702;48.370;10.794;2023-08-12T03:42:38;15.10;99.90
60868;DHT22;46702;48.370;10.794;2023-08-12T03:45:04;15.10;99.90
60868;DHT22;46702;48.370;10.794;2023-08-12T03:47:29;15.20;99.90
60868;DHT22;46702;48.370;10.794;2023-08-12T03:49:55;15.30;99.90
60868;DHT22;46702;48.370;10.794;2023-08-12T03:52:21;15.30;99.90
60868;DHT22;46702;48.370;10.794;2023-08-12T03:54:46;15.30;99.90
60868;DHT22;46702;48.370;10.794;2023-08-12T03:57:12;15.20;99.90
60868;DHT22;46702;48.370;10.794;2023-08-12T03:59:38;15.10;99.90
60868;DHT22;46702;48.370;10.794;2023-08-12T04:02:03;15.10;99.90
60868;DHT22;46702;48.370;10.794;2023-08-12T04:04:29;15.10;99.90
60868;DHT22;46702;48.370;10.794;2023-08-12T04:06:55;15.20;99.90
60868;DHT22;46702;48.370;10.794;2023-08-12T04:09:20;15.00;99.90
60868;DHT22;46702;48.370;10.794;2023-08-12T04:11:46;15.00;99.90
60868;DHT22;46702;48.370;10.794;2023-08-12T04:14:13;15.00;99.90
60868;DHT22;46702;48.370;10.794;2023-08-12T04:16:39;15.00;99.90
60868;DHT22;46702;48.370;10.794;2023-08-12T04:19:05;15.00;99.90
60868;DHT22;46702;48.370;10.794;2023-08-12T04:21:31;15.10;99.90
60868;DHT22;46702;48.370;10.794;2023-08-12T04:23:56;15.10;99.90
60868;DHT22;46702;48.370;10.794;2023-08-12T04:26:22;15.10;99.90
60868;DHT22;46702;48.370;10.794;2023-08-12T04:28:47;15.10;99.90
60868;DHT22;46702;48.370;10.794;2023-08-12T04:31:13;15.10;99.90
60868;DHT22;46702;48.370;10.794;2023-08-12T04:33:39;15.10;99.90
60868;DHT22;46702;48.370;10.794;2023-08-12T04:36:04;15.10;99.90
60868;DHT22;46702;48.370;10.794;2023-08-12T04:38:30;15.10;99.90
60868;DHT22;46702;48.370;10.794;2023-08-12T04:40:57;15.00;99.90
60868;DHT22;46702;48.370;10.794;2023-08-12T04:43:22;15.00;99.90
60868;DHT22;46702;48.370;10.794;2023-08-12T04:45:48;14.90;99.90
60868;DHT22;46702;48.370;10.794;2023-08-12T04:48:14;14.80;99.90
60868;DHT22;46702;48.370;10.794;2023-08-12T04:50:41;14.90;99.90
60868;DHT22;46702;48.370;10.794;2023-08-12T04:53:07;15.00;99.90
60868;DHT22;46702;48.370;10.794;2023-08-12T04:55:34;15.10;99.90
60868;DHT22;46702;48.370;10.794;2023-08-12T04:58:01;15.20;99.90
60868;DHT22;46702;48.370;10.794;2023-08-12T05:00:27;15.40;99.90
60868;DHT22;46702;48.370;10.794;2023-08-12T05:02:53;15.50;99.90
60868;DHT22;46702;48.370;10.794;2023-08-12T05:05:19;15.60;99.90
60868;DHT22;46702;48.370;10.794;2023-08-12T05:07:44;15.70;99.90
60868;DHT22;46702;48.370;10.794;2023-08-12T05:10:16;15.70;99.90
60868;DHT22;46702;48.370;10.794;2023-08-12T05:12:45;15.70;99.90
60868;DHT22;46702;48.370;10.794;2023-08-12T05:15:12;15.70;99.90
60868;DHT22;46702;48.370;10.794;2023-08-12T05:17:38;15.80;99.90
60868;DHT22;46702;48.370;10.794;2023-08-12T05:20:04;15.80;99.90
60868;DHT22;46702;48.370;10.794;2023-08-12T05:22:30;15.90;99.90
60868;DHT22;46702;48.370;10.794;2023-08-12T05:24:55;16.00;99.90
60868;DHT22;46702;48.370;10.794;2023-08-12T05:27:21;16.00;99.90
60868;DHT22;46702;48.370;10.794;2023-08-12T05:29:47;16.00;99.90
60868;DHT22;46702;48.370;10.794;2023-08-12T05:32:12;16.10;99.90
60868;DHT22;46702;48.370;10.794;2023-08-12T05:34:38;16.10;99.90
60868;DHT22;46702;48.370;10.794;2023-08-12T05:37:03;16.10;99.90
60868;DHT22;46702;48.370;10.794;2023-08-12T05:39:29;16.10;99.90
60868;DHT22;46702;48.370;10.794;2023-08-12T05:41:54;16.10;99.90
60868;DHT22;46702;48.370;10.794;2023-08-12T05:44:20;16.20;99.90
60868;DHT22;46702;48.370;10.794;2023-08-12T05:46:46;16.30;99.90
60868;DHT22;46702;48.370;10.794;2023-08-12T05:49:11;16.50;99.90
60868;DHT22;46702;48.370;10.794;2023-08-12T05:51:37;16.60;99.90
60868;DHT22;46702;48.370;10.794;2023-08-12T05:54:04;16.80;99.90
60868;DHT22;46702;48.370;10.794;2023-08-12T05:56:30;16.90;99.90
60868;DHT22;46702;48.370;10.794;2023-08-12T05:58:55;17.10;99.90
60868;DHT22;46702;48.370;10.794;2023-08-12T06:01:21;17.20;99.90
60868;DHT22;46702;48.370;10.794;2023-08-12T06:03:47;17.40;99.90
60868;DHT22;46702;48.370;10.794;2023-08-12T06:06:12;17.40;99.90
60868;DHT22;46702;48.370;10.794;2023-08-12T06:08:38;17.50;99.90
60868;DHT22;46702;48.370;10.794;2023-08-12T06:11:03;17.60;99.90
60868;DHT22;46702;48.370;10.794;2023-08-12T06:13:29;17.80;99.90
60868;DHT22;46702;48.370;10.794;2023-08-12T06:15:55;18.00;99.90
60868;DHT22;46702;48.370;10.794;2023-08-12T06:18:20;18.20;99.90
60868;DHT22;46702;48.370;10.794;2023-08-12T06:20:46;18.50;99.90
60868;DHT22;46702;48.370;10.794;2023-08-12T06:23:12;18.70;99.90
60868;DHT22;46702;48.370;10.794;2023-08-12T06:25:38;18.90;99.90
60868;DHT22;46702;48.370;10.794;2023-08-12T06:28:04;19.10;99.90
60868;DHT22;46702;48.370;10.794;2023-08-12T06:30:30;19.30;99.90
60868;DHT22;46702;48.370;10.794;2023-08-12T06:32:56;19.60;99.90
60868;DHT22;46702;48.370;10.794;2023-08-12T06:35:22;19.80;99.90
60868;DHT22;46702;48.370;10.794;2023-08-12T06:37:48;20.00;99.90
60868;DHT22;46702;48.370;10.794;2023-08-12T06:40:13;20.10;99.90
60868;DHT22;46702;48.370;10.794;2023-08-12T06:42:39;20.20;99.90
60868;DHT22;46702;48.370;10.794;2023-08-12T06:45:05;20.30;99.90
60868;DHT22;46702;48.370;10.794;2023-08-12T06:47:31;20.20;99.90
60868;DHT22;46702;48.370;10.794;2023-08-12T06:49:56;20.30;99.90
60868;DHT22;46702;48.370;10.794;2023-08-12T06:52:22;20.30;99.90
60868;DHT22;46702;48.370;10.794;2023-08-12T06:54:48;20.30;99.90
60868;DHT22;46702;48.370;10.794;2023-08-12T06:57:13;20.30;99.90
60868;DHT22;46702;48.370;10.794;2023-08-12T06:59:39;20.40;99.90
60868;DHT22;46702;48.370;10.794;2023-08-12T07:02:06;20.50;99.90
60868;DHT22;46702;48.370;10.794;2023-08-12T07:04:31;20.60;99.90
60868;DHT22;46702;48.370;10.794;2023-08-12T07:06:57;20.60;99.90
60868;DHT22;46702;48.370;10.794;2023-08-12T07:09:23;20.80;99.90
60868;DHT22;46702;48.370;10.794;2023-08-12T07:11:48;20.90;99.90
60868;DHT22;46702;48.370;10.794;2023-08-12T07:14:14;21.10;99.90
60868;DHT22;46702;48.370;10.794;2023-08-12T07:16:40;21.10;99.90
60868;DHT22;46702;48.370;10.794;2023-08-12T07:19:05;21.20;99.90
60868;DHT22;46702;48.370;10.794;2023-08-12T07:21:31;21.30;99.90
60868;DHT22;46702;48.370;10.794;2023-08-12T07:23:56;21.40;99.90
60868;DHT22;46702;48.370;10.794;2023-08-12T07:26:22;21.60;99.90
60868;DHT22;46702;48.370;10.794;2023-08-12T07:28:47;21.80;99.90
60868;DHT22;46702;48.370;10.794;2023-08-12T07:31:13;21.80;99.90
60868;DHT22;46702;48.370;10.794;2023-08-12T07:33:39;21.80;99.90
60868;DHT22;46702;48.370;10.794;2023-08-12T07:36:05;21.90;99.90
60868;DHT22;46702;48.370;10.794;2023-08-12T07:38:30;22.10;99.90
60868;DHT22;46702;48.370;10.794;2023-08-12T07:40:56;22.30;99.90
60868;DHT22;46702;48.370;10.794;2023-08-12T07:43:22;22.40;99.90
60868;DHT22;46702;48.370;10.794;2023-08-12T07:45:52;22.50;99.90
60868;DHT22;46702;48.370;10.794;2023-08-12T07:48:18;22.60;99.90
60868;DHT22;46702;48.370;10.794;2023-08-12T07:50:44;22.70;99.90
60868;DHT22;46702;48.370;10.794;2023-08-12T07:53:09;22.80;99.90
60868;DHT22;46702;48.370;10.794;2023-08-12T07:55:35;22.90;99.90
60868;DHT22;46702;48.370;10.794;2023-08-12T07:58:01;22.90;99.90
60868;DHT22;46702;48.370;10.794;2023-08-12T08:00:26;22.90;99.90
60868;DHT22;46702;48.370;10.794;2023-08-12T08:02:52;23.00;99.90
60868;DHT22;46702;48.370;10.794;2023-08-12T08:05:18;22.90;99.90
60868;DHT22;46702;48.370;10.794;2023-08-12T08:07:43;23.00;99.90
60868;DHT22;46702;48.370;10.794;2023-08-12T08:10:09;23.20;99.90
60868;DHT22;46702;48.370;10.794;2023-08-12T08:12:35;23.40;99.90
60868;DHT22;46702;48.370;10.794;2023-08-12T08:15:01;23.60;99.90
60868;DHT22;46702;48.370;10.794;2023-08-12T08:17:28;23.70;99.90
60868;DHT22;46702;48.370;10.794;2023-08-12T08:19:54;23.80;99.90
60868;DHT22;46702;48.370;10.794;2023-08-12T08:22:20;23.70;99.90
60868;DHT22;46702;48.370;10.794;2023-08-12T08:24:45;23.70;99.90
60868;DHT22;46702;48.370;10.794;2023-08-12T08:27:11;23.70;99.90
60868;DHT22;46702;48.370;10.794;2023-08-12T08:29:36;23.70;99.90
60868;DHT22;46702;48.370;10.794;2023-08-12T08:32:02;23.90;99.90
60868;DHT22;46702;48.370;10.794;2023-08-12T08:34:28;23.90;99.90
60868;DHT22;46702;48.370;10.794;2023-08-12T08:36:53;24.00;99.90
60868;DHT22;46702;48.370;10.794;2023-08-12T08:39:19;24.00;99.90
60868;DHT22;46702;48.370;10.794;2023-08-12T08:41:47;23.90;99.90
60868;DHT22;46702;48.370;10.794;2023-08-12T08:44:14;23.90;99.90
60868;DHT22;46702;48.370;10.794;2023-08-12T08:46:41;23.90;99.90
60868;DHT22;46702;48.370;10.794;2023-08-12T08:49:08;23.90;99.90
60868;DHT22;46702;48.370;10.794;2023-08-12T08:51:34;24.00;99.90
60868;DHT22;46702;48.370;10.794;2023-08-12T08:54:02;24.00;99.90
60868;DHT22;46702;48.370;10.794;2023-08-12T08:56:31;24.10;99.90
60868;DHT22;46702;48.370;10.794;2023-08-12T08:58:57;24.10;99.90
60868;DHT22;46702;48.370;10.794;2023-08-12T09:01:23;24.10;99.90
60868;DHT22;46702;48.370;10.794;2023-08-12T09:03:51;24.10;99.90
60868;DHT22;46702;48.370;10.794;2023-08-12T09:06:20;24.00;99.90
60868;DHT22;46702;48.370;10.794;2023-08-12T09:08:45;24.00;99.90
60868;DHT22;46702;48.370;10.794;2023-08-12T09:11:13;24.00;99.90
60868;DHT22;46702;48.370;10.794;2023-08-12T09:13:39;24.00;99.90
60868;DHT22;46702;48.370;10.794;2023-08-12T09:16:05;24.30;99.90
60868;DHT22;46702;48.370;10.794;2023-08-12T09:18:31;24.80;99.90
60868;DHT22;46702;48.370;10.794;2023-08-12T09:20:57;24.90;99.90
60868;DHT22;46702;48.370;10.794;2023-08-12T09:23:23;25.10;99.90
60868;DHT22;46702;48.370;10.794;2023-08-12T09:25:48;25.10;99.90
60868;DHT22;46702;48.370;10.794;2023-08-12T09:28:14;25.30;99.90
60868;DHT22;46702;48.370;10.794;2023-08-12T09:30:40;25.70;99.90
60868;DHT22;46702;48.370;10.794;2023-08-12T09:33:08;26.20;99.90
60868;DHT22;46702;48.370;10.794;2023-08-12T09:35:39;26.40;99.90
60868;DHT22;46702;48.370;10.794;2023-08-12T09:38:09;26.50;99.90
60868;DHT22;46702;48.370;10.794;2023-08-12T09:40:36;26.80;99.90
60868;DHT22;46702;48.370;10.794;2023-08-12T09:43:03;26.80;99.90
60868;DHT22;46702;48.370;10.794;2023-08-12T09:45:31;26.70;99.90
60868;DHT22;46702;48.370;10.794;2023-08-12T09:47:56;26.30;99.90
60868;DHT22;46702;48.370;10.794;2023-08-12T09:50:23;26.50;99.90
60868;DHT22;46702;48.370;10.794;2023-08-12T09:52:51;26.90;99.90
60868;DHT22;46702;48.370;10.794;2023-08-12T09:55:18;26.80;99.90
60868;DHT22;46702;48.370;10.794;2023-08-12T09:57:44;26.80;99.90
60868;DHT22;46702;48.370;10.794;2023-08-12T10:00:13;26.80;99.90
60868;DHT22;46702;48.370;10.794;2023-08-12T10:02:46;26.90;99.90
60868;DHT22;46702;48.370;10.794;2023-08-12T10:05:25;27.30;99.90
60868;DHT22;46702;48.370;10.794;2023-08-12T10:07:54;27.40;99.90
60868;DHT22;46702;48.370;10.794;2023-08-12T10:10:21;27.30;99.90
60868;DHT22;46702;48.370;10.794;2023-08-12T10:12:48;27.30;99.90
60868;DHT22;46702;48.370;10.794;2023-08-12T10:15:14;27.60;99.90
60868;DHT22;46702;48.370;10.794;2023-08-12T10:17:40;27.60;99.90
60868;DHT22;46702;48.370;10.794;2023-08-12T10:20:08;27.40;99.90
60868;DHT22;46702;48.370;10.794;2023-08-12T10:22:35;27.20;99.90
60868;DHT22;46702;48.370;10.794;2023-08-12T10:25:03;27.20;99.90
60868;DHT22;46702;48.370;10.794;2023-08-12T10:27:29;27.20;99.90
60868;DHT22;46702;48.370;10.794;2023-08-12T10:29:58;27.20;99.90
60868;DHT22;46702;48.370;10.794;2023-08-12T10:32:24;27.30;99.90
60868;DHT22;46702;48.370;10.794;2023-08-12T10:34:57;27.30;99.90
60868;DHT22;46702;48.370;10.794;2023-08-12T10:37:24;27.80;99.90
60868;DHT22;46702;48.370;10.794;2023-08-12T10:39:52;28.00;99.90
60868;DHT22;46702;48.370;10.794;2023-08-12T10:42:41;28.20;99.90
60868;DHT22;46702;48.370;10.794;2023-08-12T10:45:08;28.40;99.90
60868;DHT22;46702;48.370;10.794;2023-08-12T10:47:39;28.50;99.90
60868;DHT22;46702;48.370;10.794;2023-08-12T10:50:05;28.40;99.90
60868;DHT22;46702;48.370;10.794;2023-08-12T10:52:33;28.40;99.90
60868;DHT22;46702;48.370;10.794;2023-08-12T10:55:23;28.10;99.90
60868;DHT22;46702;48.370;10.794;2023-08-12T10:57:51;27.90;99.90
60868;DHT22;46702;48.370;10.794;2023-08-12T11:00:19;27.70;99.90
60868;DHT22;46702;48.370;10.794;2023-08-12T11:02:50;27.60;99.90
60868;DHT22;46702;48.370;10.794;2023-08-12T11:05:16;27.40;99.90
60868;DHT22;46702;48.370;10.794;2023-08-12T11:10:20;27.60;99.90
60868;DHT22;46702;48.370;10.794;2023-08-12T11:15:19;27.70;99.90
60868;DHT22;46702;48.370;10.794;2023-08-12T11:17:47;27.90;99.90
60868;DHT22;46702;48.370;10.794;2023-08-12T11:20:13;28.40;99.90
60868;DHT22;46702;48.370;10.794;2023-08-12T11:22:43;28.80;99.90
60868;DHT22;46702;48.370;10.794;2023-08-12T11:25:10;29.30;99.90
60868;DHT22;46702;48.370;10.794;2023-08-12T11:27:41;29.30;99.90
60868;DHT22;46702;48.370;10.794;2023-08-12T11:30:08;28.90;99.90
60868;DHT22;46702;48.370;10.794;2023-08-12T11:32:36;29.00;99.90
60868;DHT22;46702;48.370;10.794;2023-08-12T11:35:03;29.10;99.90
60868;DHT22;46702;48.370;10.794;2023-08-12T11:37:29;29.40;99.90
60868;DHT22;46702;48.370;10.794;2023-08-12T11:39:55;29.60;99.90
60868;DHT22;46702;48.370;10.794;2023-08-12T11:42:20;29.10;99.90
60868;DHT22;46702;48.370;10.794;2023-08-12T11:44:46;28.80;99.90
60868;DHT22;46702;48.370;10.794;2023-08-12T11:47:11;28.40;99.90
60868;DHT22;46702;48.370;10.794;2023-08-12T11:49:37;28.30;99.90
60868;DHT22;46702;48.370;10.794;2023-08-12T11:52:03;28.30;99.90
60868;DHT22;46702;48.370;10.794;2023-08-12T11:54:29;28.30;99.90
60868;DHT22;46702;48.370;10.794;2023-08-12T11:56:55;28.40;99.90
60868;DHT22;46702;48.370;10.794;2023-08-12T11:59:22;28.50;99.90
60868;DHT22;46702;48.370;10.794;2023-08-12T12:01:51;28.40;99.90
60868;DHT22;46702;48.370;10.794;2023-08-12T12:04:17;28.50;99.90
60868;DHT22;46702;48.370;10.794;2023-08-12T12:06:46;28.50;99.90
60868;DHT22;46702;48.370;10.794;2023-08-12T12:09:11;28.60;99.90
60868;DHT22;46702;48.370;10.794;2023-08-12T12:11:39;28.70;99.90
60868;DHT22;46702;48.370;10.794;2023-08-12T12:14:07;28.70;99.90
60868;DHT22;46702;48.370;10.794;2023-08-12T12:19:08;28.90;99.90
60868;DHT22;46702;48.370;10.794;2023-08-12T12:21:41;28.90;99.90
60868;DHT22;46702;48.370;10.794;2023-08-12T12:24:08;28.90;99.90
60868;DHT22;46702;48.370;10.794;2023-08-12T12:26:34;28.90;99.90
60868;DHT22;46702;48.370;10.794;2023-08-12T12:29:01;29.10;99.90
60868;DHT22;46702;48.370;10.794;2023-08-12T12:31:27;29.10;99.90
60868;DHT22;46702;48.370;10.794;2023-08-12T12:33:52;29.20;99.90
60868;DHT22;46702;48.370;10.794;2023-08-12T12:36:18;29.40;99.90
60868;DHT22;46702;48.370;10.794;2023-08-12T12:38:43;29.60;99.90
60868;DHT22;46702;48.370;10.794;2023-08-12T12:41:09;29.80;99.90
60868;DHT22;46702;48.370;10.794;2023-08-12T12:43:34;30.20;99.90
60868;DHT22;46702;48.370;10.794;2023-08-12T12:46:00;30.00;99.90
60868;DHT22;46702;48.370;10.794;2023-08-12T12:48:26;29.70;99.90
60868;DHT22;46702;48.370;10.794;2023-08-12T12:50:51;29.50;99.90
60868;DHT22;46702;48.370;10.794;2023-08-12T12:53:17;29.40;99.90
60868;DHT22;46702;48.370;10.794;2023-08-12T12:55:43;29.30;99.90
60868;DHT22;46702;48.370;10.794;2023-08-12T12:58:09;29.10;99.90
60868;DHT22;46702;48.370;10.794;2023-08-12T13:00:35;29.10;99.90
60868;DHT22;46702;48.370;10.794;2023-08-12T13:03:01;28.90;99.90
60868;DHT22;46702;48.370;10.794;2023-08-12T13:05:26;29.00;99.90
60868;DHT22;46702;48.370;10.794;2023-08-12T13:07:52;29.50;99.90
60868;DHT22;46702;48.370;10.794;2023-08-12T13:10:18;29.80;99.90
60868;DHT22;46702;48.370;10.794;2023-08-12T13:12:43;30.00;99.90
60868;DHT22;46702;48.370;10.794;2023-08-12T13:15:09;30.10;99.90
60868;DHT22;46702;48.370;10.794;2023-08-12T13:17:35;29.90;99.90
60868;DHT22;46702;48.370;10.794;2023-08-12T13:20:00;29.70;99.90
60868;DHT22;46702;48.370;10.794;2023-08-12T13:22:26;29.90;99.90
60868;DHT22;46702;48.370;10.794;2023-08-12T13:24:51;29.90;99.90
60868;DHT22;46702;48.370;10.794;2023-08-12T13:27:17;30.00;99.90
60868;DHT22;46702;48.370;10.794;2023-08-12T13:29:43;30.10;99.90
60868;DHT22;46702;48.370;10.794;2023-08-12T13:32:08;30.40;99.90
60868;DHT22;46702;48.370;10.794;2023-08-12T13:34:34;30.60;99.90
60868;DHT22;46702;48.370;10.794;2023-08-12T13:37:00;30.50;99.90
60868;DHT22;46702;48.370;10.794;2023-08-12T13:39:26;30.10;99.90
60868;DHT22;46702;48.370;10.794;2023-08-12T13:41:51;30.00;99.90
60868;DHT22;46702;48.370;10.794;2023-08-12T13:44:17;29.90;99.90
60868;DHT22;46702;48.370;10.794;2023-08-12T13:46:43;29.70;99.90
60868;DHT22;46702;48.370;10.794;2023-08-12T13:49:09;29.70;99.90
60868;DHT22;46702;48.370;10.794;2023-08-12T13:51:34;29.30;99.90
60868;DHT22;46702;48.370;10.794;2023-08-12T13:54:00;29.20;99.90
60868;DHT22;46702;48.370;10.794;2023-08-12T13:56:26;29.30;99.90
60868;DHT22;46702;48.370;10.794;2023-08-12T13:58:51;29.20;99.90
60868;DHT22;46702;48.370;10.794;2023-08-12T14:01:17;29.20;99.90
60868;DHT22;46702;48.370;10.794;2023-08-12T14:03:42;29.10;99.90
60868;DHT22;46702;48.370;10.794;2023-08-12T14:06:08;29.10;99.90
60868;DHT22;46702;48.370;10.794;2023-08-12T14:08:35;29.20;99.90
60868;DHT22;46702;48.370;10.794;2023-08-12T14:11:01;29.10;99.90
60868;DHT22;46702;48.370;10.794;2023-08-12T14:13:26;29.00;99.90
60868;DHT22;46702;48.370;10.794;2023-08-12T14:15:53;28.80;99.90
60868;DHT22;46702;48.370;10.794;2023-08-12T14:18:19;28.60;99.90
60868;DHT22;46702;48.370;10.794;2023-08-12T14:20:44;28.60;99.90
60868;DHT22;46702;48.370;10.794;2023-08-12T14:23:10;28.50;99.90
60868;DHT22;46702;48.370;10.794;2023-08-12T14:25:36;28.40;99.90
60868;DHT22;46702;48.370;10.794;2023-08-12T14:28:05;28.30;99.90
60868;DHT22;46702;48.370;10.794;2023-08-12T14:30:31;28.30;99.90
60868;DHT22;46702;48.370;10.794;2023-08-12T14:32:56;28.20;99.90
60868;DHT22;46702;48.370;10.794;2023-08-12T14:35:22;28.10;99.90
60868;DHT22;46702;48.370;10.794;2023-08-12T14:37:48;28.20;99.90
60868;DHT22;46702;48.370;10.794;2023-08-12T14:40:14;28.40;99.90
60868;DHT22;46702;48.370;10.794;2023-08-12T14:42:39;28.70;99.90
60868;DHT22;46702;48.370;10.794;2023-08-12T14:45:05;28.90;99.90
60868;DHT22;46702;48.370;10.794;2023-08-12T14:47:31;29.10;99.90
60868;DHT22;46702;48.370;10.794;2023-08-12T14:49:57;29.20;99.90
60868;DHT22;46702;48.370;10.794;2023-08-12T14:52:23;29.10;99.90
60868;DHT22;46702;48.370;10.794;2023-08-12T14:54:48;29.10;99.90
60868;DHT22;46702;48.370;10.794;2023-08-12T14:57:15;29.10;99.90
60868;DHT22;46702;48.370;10.794;2023-08-12T14:59:40;28.90;99.90
60868;DHT22;46702;48.370;10.794;2023-08-12T15:02:07;28.80;99.90
60868;DHT22;46702;48.370;10.794;2023-08-12T15:04:33;28.80;99.90
60868;DHT22;46702;48.370;10.794;2023-08-12T15:06:58;28.80;99.90
60868;DHT22;46702;48.370;10.794;2023-08-12T15:09:24;28.70;99.90
60868;DHT22;46702;48.370;10.794;2023-08-12T15:11:50;28.80;99.90
60868;DHT22;46702;48.370;10.794;2023-08-12T15:14:17;28.80;99.90
60868;DHT22;46702;48.370;10.794;2023-08-12T15:16:43;29.00;99.90